Ana Sayfa
METAR-TAF:

METAR-TAF

Havaalanları :

Pyongyang Sunan Uluslararası Havalimanı

Pyongyang, Kuzey Kore

Enlem: 39-02N, Boylam: 125-47E, yükseklik: 36 m

METAR: eksik

Saat: 07:08 (22:38 UTC)

Tahmin

Rapor saat 05:10 UTC de 17 saat ve 28 dakika önce yapıldı.
Ayın 21'si saat 06 UTC'den ayın 22'si saat 06 UTC'ye kadar geçerli Tahmin
Rüzgar batı/güneybatıdan 6 kt
Görüş mesafesi 10 km veya daha fazla
1500 m altında bulut yok ve kümülonimbus yok
Dönüşüyor
ayın 21'si saat 14 UTC'den ayın 21'si saat 16 UTC'ye kadar
Rüzgar güneydan 6 kt
2300 ft yükseklikte çok bulutlu

TAF: ZKPY 210510Z 2106/2206 25003MPS CAVOK TX25/2106Z TN12/2121Z BECMG 2114/2116 18003MPS OVC023

4.000'den fazla havaalanı için hava durumu gözlemleri ve tahminleri (METAR ve TAF raporları).

Kullanılabilir istasyonlar harita üzerinde sarı ve kırmızı noktalarla gösterilir.

İstasyonun adını görmek için fareyi noktanın üzerinde gezdirin.

Sonrasında hava gözlem ve tahminlerini görmek için tıklayın.

Haritayı değiştirmek için: yaklaştırmak için siyah artı işaretli yeşil düğmeye ve uzaklaştırmak için de eksi işaretli düğmeye hızla tıklayın; bitişik haritalar için yeşil okları kullanın.


METAR-TAF: